createdAt,value
2022-08-24T00:01:28.091Z,99.90
2022-08-24T00:06:32.145Z,99.90
2022-08-24T00:11:35.017Z,99.90
2022-08-24T00:16:37.869Z,99.90
2022-08-24T00:21:41.916Z,99.90
2022-08-24T00:26:45.948Z,99.90
2022-08-24T00:31:48.831Z,99.90
2022-08-24T00:36:53.470Z,99.90
2022-08-24T00:41:58.612Z,99.90
2022-08-24T00:47:06.739Z,99.90
2022-08-24T00:52:17.598Z,99.90
2022-08-24T00:57:30.223Z,99.90
2022-08-24T01:02:39.250Z,99.90
2022-08-24T01:07:59.990Z,99.90
2022-08-24T01:13:06.077Z,99.90
2022-08-24T01:24:42.804Z,99.90
2022-08-24T01:29:50.437Z,99.90
2022-08-24T01:34:55.554Z,99.90
2022-08-24T01:40:04.865Z,99.90
2022-08-24T01:45:11.972Z,99.90
2022-08-24T01:50:18.184Z,99.90
2022-08-24T01:55:22.941Z,99.90
2022-08-24T02:00:28.030Z,99.90
2022-08-24T02:05:31.112Z,99.90
2022-08-24T02:10:37.794Z,99.90
2022-08-24T02:15:41.498Z,99.90
2022-08-24T02:20:48.083Z,99.90
2022-08-24T02:25:54.801Z,99.90
2022-08-24T02:30:57.922Z,99.90
2022-08-24T02:36:04.052Z,99.90
2022-08-24T02:41:26.955Z,99.90
2022-08-24T02:46:31.962Z,99.90
2022-08-24T02:51:40.530Z,99.90
2022-08-24T02:56:49.038Z,99.90
2022-08-24T03:01:53.001Z,99.90
2022-08-24T03:06:55.934Z,99.90
2022-08-24T03:12:00.134Z,99.90
2022-08-24T03:17:03.291Z,99.90
2022-08-24T03:22:06.578Z,99.90
2022-08-24T03:27:11.398Z,99.90
2022-08-24T03:32:14.279Z,99.90
2022-08-24T03:37:17.339Z,99.90
2022-08-24T03:42:37.554Z,99.90
2022-08-24T03:47:40.574Z,99.90
2022-08-24T03:52:46.850Z,99.90
2022-08-24T03:57:53.414Z,99.90
2022-08-24T04:02:56.665Z,99.90
2022-08-24T04:07:59.599Z,99.90
2022-08-24T04:13:04.063Z,99.90
2022-08-24T04:18:09.953Z,99.90
2022-08-24T04:23:13.483Z,99.90
2022-08-24T04:28:19.993Z,99.90
2022-08-24T04:33:24.960Z,99.90
2022-08-24T04:38:31.053Z,99.90
2022-08-24T04:43:35.502Z,99.90
2022-08-24T04:48:39.082Z,99.90
2022-08-24T04:53:42.410Z,99.90
2022-08-24T04:58:47.350Z,99.90
2022-08-24T05:03:52.385Z,99.90
2022-08-24T05:09:00.484Z,99.90
2022-08-24T05:14:05.909Z,99.90
2022-08-24T05:19:12.809Z,99.90
2022-08-24T05:24:15.815Z,99.90
2022-08-24T05:29:23.267Z,99.90
2022-08-24T05:34:26.581Z,99.90
2022-08-24T05:39:31.063Z,99.90
2022-08-24T05:44:35.226Z,99.90
2022-08-24T05:49:41.331Z,99.90
2022-08-24T05:54:44.474Z,99.90
2022-08-24T05:59:48.784Z,99.90
2022-08-24T06:04:51.709Z,99.90
2022-08-24T06:09:54.643Z,99.90
2022-08-24T06:14:58.895Z,99.90
2022-08-24T06:20:01.735Z,99.90
2022-08-24T06:25:22.990Z,99.90
2022-08-24T06:30:30.727Z,99.90
2022-08-24T06:35:33.598Z,99.90
2022-08-24T06:40:36.531Z,99.90
2022-08-24T06:45:43.749Z,99.90
2022-08-24T06:50:48.113Z,99.90
2022-08-24T06:55:52.045Z,99.90
2022-08-24T07:00:57.102Z,99.90
2022-08-24T07:05:59.858Z,99.90
2022-08-24T07:11:03.381Z,99.90
2022-08-24T07:16:09.871Z,99.90
2022-08-24T07:21:12.710Z,99.90
2022-08-24T07:26:21.806Z,99.90
2022-08-24T07:31:26.680Z,99.90
2022-08-24T07:36:29.514Z,99.90
2022-08-24T07:46:57.031Z,99.90
2022-08-24T07:51:59.834Z,99.90
2022-08-24T07:57:06.500Z,99.90
2022-08-24T08:02:11.187Z,99.90
2022-08-24T08:07:14.955Z,99.90
2022-08-24T08:12:17.931Z,99.90
2022-08-24T08:17:21.960Z,99.90
2022-08-24T08:22:42.348Z,99.90
2022-08-24T08:27:45.059Z,99.90
2022-08-24T08:32:49.114Z,99.90
2022-08-24T08:37:52.018Z,99.90
2022-08-24T08:43:02.126Z,99.90
2022-08-24T08:48:33.117Z,99.90
2022-08-24T08:54:09.710Z,99.90
2022-08-24T08:59:26.057Z,99.90
2022-08-24T09:04:50.111Z,99.90
2022-08-24T09:10:13.984Z,99.90
2022-08-24T09:15:40.475Z,93.60
2022-08-24T09:21:09.168Z,85.10
2022-08-24T09:26:24.568Z,72.60
2022-08-24T09:31:46.161Z,60.40
2022-08-24T09:36:58.244Z,64.90
2022-08-24T09:42:28.071Z,77.30
2022-08-24T09:47:53.691Z,90.90
2022-08-24T09:53:32.886Z,96.60
2022-08-24T09:58:50.900Z,96.10
2022-08-24T10:04:05.450Z,85.90
2022-08-24T10:09:25.651Z,73.20
2022-08-24T10:14:45.071Z,58.80
2022-08-24T10:19:58.051Z,53.90
2022-08-24T10:25:12.905Z,48.60
2022-08-24T10:30:34.900Z,51.50
2022-08-24T10:36:03.461Z,51.80
2022-08-24T10:41:41.276Z,51.30
2022-08-24T10:46:50.437Z,52.00
2022-08-24T10:52:36.596Z,59.60
2022-08-24T10:57:52.251Z,69.50
2022-08-24T11:03:09.148Z,73.50
2022-08-24T11:08:20.791Z,71.40
2022-08-24T11:13:27.728Z,71.00
2022-08-24T11:18:49.455Z,76.40
2022-08-24T11:23:52.744Z,82.10
2022-08-24T11:29:05.180Z,86.00
2022-08-24T11:34:10.667Z,88.40
2022-08-24T11:39:22.226Z,81.20
2022-08-24T11:44:39.691Z,58.40
2022-08-24T11:49:53.263Z,50.80
2022-08-24T11:55:05.245Z,55.90
2022-08-24T12:00:14.859Z,62.00
2022-08-24T12:05:25.879Z,69.00
2022-08-24T12:10:38.811Z,75.40
2022-08-24T12:15:52.093Z,80.50
2022-08-24T12:20:55.784Z,84.70
2022-08-24T12:26:02.901Z,75.50
2022-08-24T12:31:14.120Z,63.10
2022-08-24T12:36:25.994Z,55.40
2022-08-24T12:41:35.027Z,58.60
2022-08-24T12:46:40.339Z,62.50
2022-08-24T12:52:05.104Z,64.70
2022-08-24T12:57:19.700Z,66.50
2022-08-24T13:02:37.625Z,66.50
2022-08-24T13:07:50.091Z,69.10
2022-08-24T13:13:08.464Z,66.30
2022-08-24T13:18:50.792Z,64.90
2022-08-24T13:24:50.275Z,66.10
2022-08-24T13:30:06.204Z,66.80
2022-08-24T13:35:33.833Z,67.30
2022-08-24T13:40:48.347Z,65.50
2022-08-24T13:45:58.290Z,64.90
2022-08-24T13:51:20.542Z,65.00
2022-08-24T13:56:38.471Z,66.50
2022-08-24T14:02:06.514Z,68.60
2022-08-24T14:07:15.861Z,74.10
2022-08-24T14:12:27.015Z,74.60
2022-08-24T14:17:55.520Z,79.00
2022-08-24T14:23:06.889Z,78.60
2022-08-24T14:28:37.163Z,78.90
2022-08-24T14:33:50.495Z,77.50
2022-08-24T14:39:06.525Z,76.70
2022-08-24T14:44:25.275Z,74.30
2022-08-24T14:49:36.405Z,75.90
2022-08-24T14:54:57.595Z,80.30
2022-08-24T15:00:10.263Z,82.50
2022-08-24T15:05:23.145Z,84.80
2022-08-24T15:10:29.366Z,85.90
2022-08-24T15:15:36.264Z,87.60
2022-08-24T15:20:49.655Z,87.90
2022-08-24T15:25:59.336Z,81.90
2022-08-24T15:31:07.487Z,73.10
2022-08-24T15:36:14.369Z,71.60
2022-08-24T15:41:19.679Z,73.60
2022-08-24T15:46:27.233Z,75.30
2022-08-24T15:51:46.867Z,77.10
2022-08-24T15:56:51.940Z,79.60
2022-08-24T16:02:30.430Z,81.70
2022-08-24T16:08:13.625Z,85.10
2022-08-24T16:13:25.752Z,84.30
2022-08-24T16:18:45.041Z,86.70
2022-08-24T16:23:56.201Z,88.30
2022-08-24T16:28:59.276Z,89.10
2022-08-24T16:34:15.606Z,90.50
2022-08-24T16:39:19.647Z,91.50
2022-08-24T16:44:25.979Z,89.50
2022-08-24T16:49:29.115Z,88.20
2022-08-24T16:54:34.060Z,90.80
2022-08-24T16:59:37.936Z,93.00
2022-08-24T17:04:42.612Z,93.90
2022-08-24T17:09:48.263Z,94.20
2022-08-24T17:14:51.500Z,94.50
2022-08-24T17:19:55.997Z,96.00
2022-08-24T17:25:00.208Z,97.20
2022-08-24T17:30:04.730Z,98.70
2022-08-24T17:35:07.935Z,99.90
2022-08-24T17:40:16.316Z,99.90
2022-08-24T17:45:19.274Z,99.90
2022-08-24T17:50:24.118Z,99.90
2022-08-24T17:55:29.200Z,99.90
2022-08-24T18:00:32.876Z,99.90
2022-08-24T18:05:35.862Z,99.90
2022-08-24T18:10:40.021Z,99.90
2022-08-24T18:15:43.141Z,99.90
2022-08-24T18:20:45.945Z,99.90
2022-08-24T18:25:52.720Z,99.90
2022-08-24T18:30:55.551Z,99.90
2022-08-24T18:36:00.120Z,99.90
2022-08-24T18:41:04.245Z,99.90
2022-08-24T18:46:07.323Z,99.90
2022-08-24T18:51:12.425Z,99.90
2022-08-24T18:56:16.521Z,99.90
2022-08-24T19:01:19.312Z,99.90
2022-08-24T19:06:22.507Z,99.90
2022-08-24T19:11:26.664Z,99.90
2022-08-24T19:16:29.447Z,99.90
2022-08-24T19:21:35.585Z,99.90
2022-08-24T19:26:39.645Z,99.90
2022-08-24T19:31:42.814Z,99.90
2022-08-24T19:36:45.902Z,99.90
2022-08-24T19:41:50.739Z,99.90
2022-08-24T19:46:59.311Z,99.90
2022-08-24T19:52:02.966Z,99.90
2022-08-24T19:57:37.343Z,99.90
2022-08-24T20:02:40.325Z,99.90
2022-08-24T20:07:43.429Z,99.90
2022-08-24T20:12:47.803Z,99.90
2022-08-24T20:17:51.172Z,99.90
2022-08-24T20:22:54.021Z,99.90
2022-08-24T20:28:25.356Z,99.90
2022-08-24T20:33:24.822Z,99.90
2022-08-24T20:38:32.096Z,99.90
2022-08-24T20:43:36.457Z,99.90
2022-08-24T20:48:42.935Z,99.90
2022-08-24T20:53:46.537Z,99.90
2022-08-24T20:58:51.044Z,99.90
2022-08-24T21:03:53.757Z,99.90
2022-08-24T21:08:56.620Z,99.90
2022-08-24T21:14:00.697Z,99.90
2022-08-24T21:19:03.468Z,99.90
2022-08-24T21:24:09.575Z,99.90
2022-08-24T21:29:13.666Z,99.90
2022-08-24T21:34:34.005Z,99.90
2022-08-24T21:39:37.020Z,99.90
2022-08-24T21:44:42.390Z,99.90
2022-08-24T21:49:45.125Z,99.90
2022-08-24T21:54:48.069Z,99.90
2022-08-24T21:59:52.132Z,99.90
2022-08-24T22:04:56.682Z,99.90
2022-08-24T22:09:59.935Z,99.90
2022-08-24T22:15:05.413Z,99.90
2022-08-24T22:20:10.468Z,99.90
2022-08-24T22:25:25.919Z,99.90
2022-08-24T22:30:32.609Z,99.90
2022-08-24T22:35:44.720Z,99.90
2022-08-24T22:40:53.706Z,99.90
2022-08-24T22:45:57.786Z,99.90
2022-08-24T22:51:01.429Z,99.90
2022-08-24T22:56:05.313Z,99.90
2022-08-24T23:01:09.644Z,99.90
2022-08-24T23:06:12.383Z,99.90
2022-08-24T23:11:15.826Z,99.90
2022-08-24T23:16:19.958Z,99.90
2022-08-24T23:21:22.899Z,99.90
2022-08-24T23:26:26.253Z,99.90
2022-08-24T23:31:31.259Z,99.90
2022-08-24T23:36:34.075Z,99.90
2022-08-24T23:41:39.135Z,99.90
2022-08-24T23:46:46.599Z,99.90
2022-08-24T23:51:50.114Z,99.90
2022-08-24T23:56:55.806Z,99.90
